New Sweden, Texas
Current Conditions -  °F | °C
As of 11:55 PM on Wednesday 22 Oct 2014 (Local Time) from KEDC Reporting Station
Overcast Overcast  
Wind Chill: 68°   Ceiling: 7000
Heat Index: 68°   Visibility: 10mi
Dew Point: 59°   Wind: 5mph
Humidity: 73%   Direction: 60°ENE
Pressure: 30.1"   Gusts: NA
Location:  30.352°N, 97.5205°W
Report Text: KEDC 230455Z AUTO 06004KT 10SM FEW026 SCT046 OVC070 20/15 A3010 RMK AO2
Loading
Personal Weather Stations






























Interactive Weather Map
Tropical Storm Tracking
New forecast layout! Learn more

10-Day Weather Forecast

Advertisements
Track Severe Weather on mobile